AirNav   Free Bose QuietComfort 20
 
 949 users online  

3PS7 Coxton Lake Heliport
Lakewood, Pennsylvania, USA

GOING TO LAKEWOOD?


FAA INFORMATION EFFECTIVE 05 DECEMBER 2019

Location

FAA Identifier: 3PS7
Lat/Long: 41-51-29.0000N 075-26-56.0000W
41-51.483333N 075-26.933333W
41.8580556,-75.4488889
(estimated)
Elevation: 2110 ft. / 643 m (estimated)
From city: 3 miles W of LAKEWOOD, PA
Time zone: UTC -5 (UTC -4 during Daylight Saving Time)
Zip code: 18462

Heliport Operations

Heliport use: Private use. Permission required prior to landing
Activation date: 08/2006
Control tower: no
ARTCC: NEW YORK CENTER
FSS: WILLIAMSPORT FLIGHT SERVICE STATION
Attendance: IREG
Wind indicator: yes
Segmented circle: no

Nearby radio navigation aids

VOR radial/distance  VOR name  Freq  Var
HNKr217/13.6HANCOCK VOR/DME116.8011W
DNYr240/29.2DELANCEY VOR/DME112.1011W
CFBr130/35.5BINGHAMTON VOR/DME112.2010W
LVZr027/36.7WILKES-BARRE VORTAC111.6010W
RKAr205/37.7ROCKDALE VOR/DME112.6011W

Heliport Services

Runway Information

Helipad H1

Dimensions: 65 x 65 ft. / 20 x 20 m
Surface: turf
Runway edge markings: FOUR CORNERS OF HELIPAD MARKED WITH WHITE CONCRETE BLOCKS.
Traffic pattern: leftleft

Heliport Ownership and Management from official FAA records

Ownership: Privately-owned
Owner: ROBERT ALLEN
6085 WHITETAIL DRIVE
COOPERSBURG, PA 18036
Phone 215-353-2072
Manager: ROBERT ALLEN
3131 WRITER LAKE ROAD
THOMPSON, PA 18645
Phone 570-727-3001

Heliport Operational Statistics

Aircraft based on the field: 1
Helicopters: 1
    

Additional Remarks

FOR CD CTC NEW YORK ARTCC AT 631-468-1425.

Instrument Procedures

There are no published instrument procedures at 3PS7.

Some nearby airports with instrument procedures:

9N3 - Seamans Field Airport (21 nm SW)
N30 - Cherry Ridge Airport (22 nm SE)
N23 - Sidney Municipal Airport (27 nm N)
70N - Spring Hill Airport (31 nm S)
KMSV - Sullivan County International Airport (31 nm E)
 
Loc | Ops | Rwys | IFR | FBO | Links
Com | Nav | Svcs | Stats | Notes
Area around 3PS7 (Coxton Lake Heliport)
 
Road maps at: MapQuest Bing Google
 
Aerial photo
No photo
 
Sectional chart

 
Airport distance calculator
Flying to Coxton Lake Heliport? Find the distance to fly.

From to 3PS7

Sunrise and sunset
Times for 12-Dec-2019
 Local
(UTC-5)
 Zulu
(UTC)
Morning civil twilight06:5011:50
Sunrise07:2112:21
Sunset16:3021:30
Evening civil twilight17:0122:01

Current date and time
Zulu (UTC)  12-Dec-2019 23:34:20
Local (UTC-5)  12-Dec-2019 18:34:20
 
METAR
KMSV 
31nm E 
122256Z AUTO 13005KT 10SM CLR M06/M11 A3059 RMK AO2 SLPNO T10561106 FZRANO
KBGM 
32nm NW 
122253Z 15006KT 10SM CLR M04/M12 A3051 RMK AO2 SLP360 T10441122
KAVP 
34nm S 
122254Z 00000KT 10SM CLR M01/M12 A3057 RMK AO2 SLP365 T10061117
KMPO 
44nm S 
122253Z AUTO 15005KT 10SM CLR M05/M11 A3054 RMK AO2 SLP378 T10501106
TAF
KBGM 
32nm NW 
121720Z 1218/1318 19006KT P6SM SCT100 FM130600 18011KT P6SM SCT200 WS020/20035KT FM131200 17009KT P6SM BKN035 FM131500 18010G18KT P6SM BKN025
KAVP 
34nm S 
121720Z 1218/1318 25004KT P6SM SCT100 FM130600 18005KT P6SM OVC200 WS020/20035KT FM131300 17006KT P6SM OVC025
NOTAMs
Click for the latest NOTAMs
NOTAMs are issued by the DoD/FAA and will open in a separate window not controlled by AirNav.

 

 
 

Would you like to see your business listed on this page?

 If your business provides an interesting product or service to pilots, flight crews, aircraft, or users of the Coxton Lake Heliport, you should consider listing it here.  To start the listing process, click on the button below
 
Add a business
 

Other Pages about Coxton Lake Heliport

Update a link
 
Copyright © AirNav, LLC. All rights reserved. Privacy Policy  Contact